Time;durP1;ratioP1;P1;durP2;ratioP2;P2;SDS_P1;SDS_P2;PMS_P1;PMS_P2;Temp;Humidity;BMP_temperature;BMP_pressure;BME280_temperature;BME280_humidity;BME280_pressure;Samples;Min_cycle;Max_cycle;Signal;HPM_P1;HPM_P2
2021/03/02 00:00:03;;;;;;;31.80;15.57;;;1.90;99.90;;;;;;5019140;28;20208;-76
2021/03/02 00:02:28;;;;;;;34.17;16.57;;;1.90;99.90;;;;;;5035973;28;20184;-76
2021/03/02 00:04:54;;;;;;;33.73;16.10;;;1.90;99.90;;;;;;5035661;28;20667;-76
2021/03/02 00:07:19;;;;;;;35.43;16.57;;;1.90;99.90;;;;;;5035667;28;20189;-76
2021/03/02 00:09:46;;;;;;;29.93;15.40;;;1.80;99.90;;;;;;5019054;28;20184;-75
2021/03/02 00:12:11;;;;;;;29.63;15.77;;;1.80;99.90;;;;;;5018860;28;20210;-75
2021/03/02 00:14:37;;;;;;;28.63;15.13;;;1.80;99.90;;;;;;5035060;28;20225;-75
2021/03/02 00:17:05;;;;;;;32.77;15.90;;;1.80;99.90;;;;;;5035585;28;20232;-75
2021/03/02 00:19:38;;;;;;;28.90;14.67;;;1.70;99.90;;;;;;5052355;28;20209;-75
2021/03/02 00:22:25;;;;;;;31.57;15.23;;;1.70;99.90;;;;;;5019280;28;20271;-75
2021/03/02 00:24:53;;;;;;;33.23;15.33;;;1.70;99.90;;;;;;5035169;28;20210;-75
2021/03/02 00:27:20;;;;;;;30.03;14.77;;;1.70;99.90;;;;;;5018896;28;20551;-75
2021/03/02 00:29:46;;;;;;;29.07;14.83;;;1.70;99.90;;;;;;5035624;28;20200;-75
2021/03/02 00:32:11;;;;;;;31.57;14.83;;;1.60;99.90;;;;;;5018753;28;20678;-76
2021/03/02 00:34:37;;;;;;;31.03;15.70;;;1.60;99.90;;;;;;5018634;28;20594;-76
2021/03/02 00:37:03;;;;;;;30.03;15.80;;;1.60;99.90;;;;;;5018147;28;20545;-75
2021/03/02 00:39:29;;;;;;;26.67;14.73;;;1.60;99.90;;;;;;5018313;28;20193;-75
2021/03/02 00:41:54;;;;;;;28.33;14.93;;;1.60;99.90;;;;;;5034527;28;20188;-76
2021/03/02 00:44:20;;;;;;;30.90;16.00;;;1.70;99.90;;;;;;5034697;28;20205;-75
2021/03/02 00:46:46;;;;;;;27.43;14.13;;;1.70;99.90;;;;;;5034671;28;20181;-75
2021/03/02 00:49:12;;;;;;;27.93;14.47;;;1.60;99.90;;;;;;5034947;28;20173;-76
2021/03/02 00:51:39;;;;;;;28.03;14.93;;;1.50;99.90;;;;;;5034713;28;20306;-76
2021/03/02 00:54:05;;;;;;;28.77;15.23;;;1.50;99.90;;;;;;5018308;28;20629;-75
2021/03/02 00:56:31;;;;;;;30.40;14.70;;;1.50;99.90;;;;;;5017549;28;20280;-75
2021/03/02 00:58:56;;;;;;;30.17;15.47;;;1.50;99.90;;;;;;5051046;28;20260;-75
2021/03/02 01:01:22;;;;;;;27.57;14.77;;;1.50;99.90;;;;;;5018237;28;20498;-75
2021/03/02 01:03:48;;;;;;;31.93;15.40;;;1.50;99.90;;;;;;5034160;28;20208;-75
2021/03/02 01:06:13;;;;;;;27.37;14.53;;;1.40;99.90;;;;;;5034431;28;20166;-75
2021/03/02 01:08:39;;;;;;;27.80;14.20;;;1.40;99.90;;;;;;5017826;28;20196;-75
2021/03/02 01:11:04;;;;;;;28.43;15.23;;;1.30;99.90;;;;;;5034161;28;20177;-75
2021/03/02 01:13:30;;;;;;;29.30;15.73;;;1.40;99.90;;;;;;5033919;28;20240;-75
2021/03/02 01:15:56;;;;;;;30.97;15.80;;;1.40;99.90;;;;;;5034195;28;20527;-75
2021/03/02 01:18:21;;;;;;;30.03;14.87;;;1.40;99.90;;;;;;5050731;28;20192;-75
2021/03/02 01:20:47;;;;;;;30.63;15.30;;;1.40;99.90;;;;;;5034167;28;20264;-75
2021/03/02 01:23:12;;;;;;;30.77;15.47;;;1.40;99.90;;;;;;5033821;28;20285;-75
2021/03/02 01:25:38;;;;;;;28.83;14.67;;;1.30;99.90;;;;;;5033826;28;20184;-75
2021/03/02 01:28:04;;;;;;;29.80;15.23;;;1.30;99.90;;;;;;5034027;28;20174;-75
2021/03/02 01:30:29;;;;;;;32.07;14.93;;;1.30;99.90;;;;;;5034285;28;20227;-75
2021/03/02 01:32:55;;;;;;;28.57;15.00;;;1.30;99.90;;;;;;5033791;28;20192;-75
2021/03/02 01:35:21;;;;;;;27.60;15.67;;;1.30;99.90;;;;;;5050169;28;20172;-75
2021/03/02 01:37:47;;;;;;;32.43;15.40;;;1.20;99.90;;;;;;5017760;28;20438;-75
2021/03/02 01:40:14;;;;;;;27.13;14.90;;;1.20;99.90;;;;;;5033993;28;20672;-75
2021/03/02 01:42:40;;;;;;;30.07;14.67;;;1.30;99.90;;;;;;5017454;28;20202;-75
2021/03/02 01:45:12;;;;;;;26.37;14.53;;;1.30;99.90;;;;;;5017632;28;20184;-75
2021/03/02 01:47:39;;;;;;;30.27;15.10;;;1.20;99.90;;;;;;5017815;28;20176;-76
2021/03/02 01:50:05;;;;;;;31.60;15.40;;;1.20;99.90;;;;;;5033967;28;20304;-76
2021/03/02 01:52:32;;;;;;;31.33;14.97;;;1.10;99.90;;;;;;5033762;28;20709;-76
2021/03/02 01:54:58;;;;;;;28.13;14.40;;;1.10;99.90;;;;;;5016996;28;20285;-77
2021/03/02 01:57:23;;;;;;;28.67;15.27;;;1.10;99.90;;;;;;5033724;28;20277;-76
2021/03/02 01:59:49;;;;;;;34.47;15.67;;;1.10;99.90;;;;;;5033560;28;20183;-76
2021/03/02 02:02:17;;;;;;;29.77;15.07;;;1.00;99.90;;;;;;5050620;28;20173;-77
2021/03/02 02:04:46;;;;;;;28.50;14.87;;;1.10;99.90;;;;;;5033729;28;20640;-76
2021/03/02 02:07:15;;;;;;;30.77;14.60;;;1.10;99.90;;;;;;5034032;28;20174;-77
2021/03/02 02:10:04;;;;;;;27.30;14.33;;;1.00;99.90;;;;;;5050311;28;20194;-76
2021/03/02 02:12:37;;;;;;;32.50;15.07;;;1.00;99.90;;;;;;5050590;28;20714;-76
2021/03/02 02:15:10;;;;;;;28.03;14.57;;;0.90;99.90;;;;;;5050367;28;20277;-76
2021/03/02 02:17:55;;;;;;;28.53;15.13;;;0.90;99.90;;;;;;5017542;28;20181;-77
2021/03/02 02:20:56;;;;;;;30.33;15.37;;;1.00;99.90;;;;;;5051375;28;20181;-76
2021/03/02 02:23:43;;;;;;;26.53;15.30;;;1.00;99.90;;;;;;5028963;28;20316;-76
2021/03/02 02:26:08;;;;;;;30.93;15.70;;;1.00;99.90;;;;;;5032704;28;20208;-77
2021/03/02 02:28:35;;;;;;;30.73;15.87;;;1.00;99.90;;;;;;5050063;28;20315;-76
2021/03/02 02:31:01;;;;;;;27.03;15.17;;;1.00;99.90;;;;;;5017231;28;20661;-77
2021/03/02 02:33:30;;;;;;;28.27;14.77;;;0.90;99.90;;;;;;5033600;28;20198;-77
2021/03/02 02:35:56;;;;;;;27.37;14.87;;;0.90;99.90;;;;;;5033781;28;20642;-77
2021/03/02 02:38:21;;;;;;;26.80;14.23;;;0.90;99.90;;;;;;5033523;28;20227;-76
2021/03/02 02:40:48;;;;;;;29.67;15.47;;;0.90;99.90;;;;;;5033708;28;20244;-77
2021/03/02 02:43:15;;;;;;;30.40;14.83;;;0.80;99.90;;;;;;5033743;28;20202;-76
2021/03/02 02:45:42;;;;;;;29.37;15.07;;;0.90;99.90;;;;;;5017238;28;20569;-76
2021/03/02 02:48:09;;;;;;;28.23;15.27;;;1.00;99.90;;;;;;5053358;28;20248;-76
2021/03/02 02:50:35;;;;;;;27.37;14.80;;;0.90;99.90;;;;;;5037230;28;20255;-76
2021/03/02 02:53:00;;;;;;;28.33;14.40;;;0.90;99.90;;;;;;5020177;28;20761;-76
2021/03/02 02:55:40;;;;;;;30.37;14.43;;;0.90;99.90;;;;;;5020777;28;20265;-77
2021/03/02 02:58:06;;;;;;;28.10;14.37;;;0.90;99.90;;;;;;5021154;28;20220;-76
2021/03/02 03:00:33;;;;;;;28.93;14.63;;;0.90;99.90;;;;;;5020338;28;20210;-76
2021/03/02 03:03:01;;;;;;;24.63;14.13;;;0.80;99.90;;;;;;5036604;28;20214;-76
2021/03/02 03:05:26;;;;;;;28.70;14.57;;;0.80;99.90;;;;;;5037224;28;20167;-76
2021/03/02 03:08:07;;;;;;;25.70;13.27;;;0.80;99.90;;;;;;5036396;28;20181;-76
2021/03/02 03:10:32;;;;;;;28.97;13.77;;;0.80;99.90;;;;;;5038590;28;20176;-76
2021/03/02 03:13:01;;;;;;;28.57;14.00;;;0.70;99.90;;;;;;5036610;28;20580;-77
2021/03/02 03:15:26;;;;;;;27.67;15.10;;;0.80;99.90;;;;;;5020250;28;20562;-76
2021/03/02 03:17:58;;;;;;;28.90;14.80;;;0.70;99.90;;;;;;5053356;28;20177;-77
2021/03/02 03:20:26;;;;;;;26.70;14.63;;;0.70;99.90;;;;;;5037240;28;20181;-76
2021/03/02 03:22:53;;;;;;;30.23;14.33;;;0.70;99.90;;;;;;5020253;28;20661;-77
2021/03/02 03:25:19;;;;;;;26.83;14.40;;;0.80;99.90;;;;;;5019608;28;20204;-76
2021/03/02 03:27:51;;;;;;;28.67;14.90;;;0.70;99.90;;;;;;5036174;28;20227;-76
2021/03/02 03:30:19;;;;;;;28.83;14.93;;;0.70;99.90;;;;;;5020613;28;20192;-76
2021/03/02 03:32:46;;;;;;;28.47;13.63;;;0.70;99.90;;;;;;5019530;28;20185;-76
2021/03/02 03:35:12;;;;;;;23.77;13.70;;;0.70;99.90;;;;;;5036292;28;20246;-76
2021/03/02 03:37:38;;;;;;;27.50;14.27;;;0.70;99.90;;;;;;5036054;28;20177;-76
2021/03/02 03:40:04;;;;;;;28.17;13.93;;;0.60;99.90;;;;;;5052788;28;20188;-76
2021/03/02 03:42:30;;;;;;;21.17;12.77;;;0.60;99.90;;;;;;5052438;28;20182;-76
2021/03/02 03:44:55;;;;;;;28.30;13.87;;;0.50;99.90;;;;;;5052494;28;20264;-76
2021/03/02 03:47:21;;;;;;;26.60;14.43;;;0.50;99.90;;;;;;5019373;28;20595;-76
2021/03/02 03:49:47;;;;;;;24.37;13.70;;;0.50;99.90;;;;;;5035871;28;20186;-76
2021/03/02 03:52:14;;;;;;;27.20;13.83;;;0.50;99.90;;;;;;5035696;28;20184;-76
2021/03/02 03:54:40;;;;;;;24.97;13.40;;;0.50;99.90;;;;;;5019684;28;20650;-76
2021/03/02 03:57:06;;;;;;;29.07;13.90;;;0.60;99.90;;;;;;5035506;28;20178;-76
2021/03/02 03:59:32;;;;;;;23.07;12.83;;;0.50;99.90;;;;;;5035909;28;20677;-76
2021/03/02 04:01:58;;;;;;;23.63;13.03;;;0.50;99.90;;;;;;5019275;28;20561;-76
2021/03/02 04:04:24;;;;;;;24.27;14.03;;;0.50;99.90;;;;;;5019371;28;20295;-76
2021/03/02 04:06:50;;;;;;;27.87;14.13;;;0.50;99.90;;;;;;5035010;28;20243;-77
2021/03/02 04:09:17;;;;;;;25.20;13.47;;;0.50;99.90;;;;;;5035620;28;20193;-77
2021/03/02 04:11:43;;;;;;;22.97;12.83;;;0.50;99.90;;;;;;5035939;28;20177;-76
2021/03/02 04:14:09;;;;;;;25.43;13.47;;;0.50;99.90;;;;;;5035086;28;20729;-76
2021/03/02 04:16:36;;;;;;;23.47;13.03;;;0.50;99.90;;;;;;5018950;28;20693;-76
2021/03/02 04:19:03;;;;;;;25.53;13.50;;;0.50;99.90;;;;;;5035517;28;20186;-76
2021/03/02 04:21:29;;;;;;;25.43;13.43;;;0.50;99.90;;;;;;5035391;28;20180;-77
2021/03/02 04:23:54;;;;;;;21.83;12.63;;;0.40;99.90;;;;;;5018594;28;20587;-76
2021/03/02 04:26:20;;;;;;;27.97;13.83;;;0.50;99.90;;;;;;5053274;28;20702;-76
2021/03/02 04:28:45;;;;;;;23.70;13.23;;;0.50;99.90;;;;;;5035321;28;20166;-75
2021/03/02 04:31:11;;;;;;;24.77;13.33;;;0.50;99.90;;;;;;5018527;28;20188;-75
2021/03/02 04:33:37;;;;;;;24.20;13.10;;;0.40;99.90;;;;;;5035105;28;20200;-75
2021/03/02 04:36:02;;;;;;;28.30;14.17;;;0.40;99.90;;;;;;5051401;28;20176;-74
2021/03/02 04:38:29;;;;;;;25.17;13.37;;;0.40;99.90;;;;;;5035219;28;20185;-74
2021/03/02 04:40:55;;;;;;;24.17;13.53;;;0.40;99.90;;;;;;5035058;28;20669;-75
2021/03/02 04:43:20;;;;;;;24.83;13.57;;;0.40;99.90;;;;;;5051331;28;20208;-75
2021/03/02 04:45:46;;;;;;;25.37;14.30;;;0.30;99.90;;;;;;5034919;28;20178;-75
2021/03/02 04:48:12;;;;;;;24.80;12.57;;;0.30;99.90;;;;;;5036609;28;20229;-75
2021/03/02 04:50:39;;;;;;;25.07;13.27;;;0.30;99.90;;;;;;5053366;28;20172;-75
2021/03/02 04:53:05;;;;;;;25.07;13.73;;;0.30;99.90;;;;;;5036226;28;20689;-75
2021/03/02 04:55:31;;;;;;;24.97;14.00;;;0.30;99.90;;;;;;5051431;28;20174;-75
2021/03/02 04:57:56;;;;;;;25.67;12.97;;;0.30;99.90;;;;;;5034520;28;20185;-75
2021/03/02 05:00:22;;;;;;;27.17;15.03;;;0.30;99.90;;;;;;5035033;28;20254;-75
2021/03/02 05:02:48;;;;;;;24.60;13.63;;;0.30;99.90;;;;;;5018388;28;20210;-75
2021/03/02 05:05:14;;;;;;;23.87;13.53;;;0.30;99.90;;;;;;5034634;28;20189;-75
2021/03/02 05:07:40;;;;;;;26.17;13.80;;;0.30;99.90;;;;;;5050891;28;20191;-75
2021/03/02 05:10:06;;;;;;;23.67;13.73;;;0.30;99.90;;;;;;5033867;28;20169;-77
2021/03/02 05:12:32;;;;;;;26.43;14.00;;;0.30;99.90;;;;;;5050940;28;20696;-76
2021/03/02 05:14:57;;;;;;;27.17;14.33;;;0.30;99.90;;;;;;5034645;28;20233;-76
2021/03/02 05:17:23;;;;;;;28.10;14.87;;;0.30;99.90;;;;;;5034209;28;20723;-75
2021/03/02 05:19:50;;;;;;;22.53;12.83;;;0.30;99.90;;;;;;5050886;28;20545;-75
2021/03/02 05:22:16;;;;;;;26.53;14.63;;;0.30;99.90;;;;;;5034569;28;20179;-75
2021/03/02 05:24:41;;;;;;;26.83;14.33;;;0.30;99.90;;;;;;5050366;28;20216;-75
2021/03/02 05:27:07;;;;;;;27.07;14.30;;;0.40;99.90;;;;;;5051745;28;20166;-75
2021/03/02 05:29:33;;;;;;;26.40;14.73;;;0.40;99.90;;;;;;5034073;28;20252;-75
2021/03/02 05:31:59;;;;;;;24.70;13.23;;;0.30;99.90;;;;;;5034214;28;20178;-75
2021/03/02 05:34:25;;;;;;;23.60;13.60;;;0.40;99.90;;;;;;5033874;28;20664;-75
2021/03/02 05:36:54;;;;;;;26.17;13.47;;;0.30;99.90;;;;;;5034064;28;20180;-75
2021/03/02 05:39:21;;;;;;;24.43;12.43;;;0.30;99.90;;;;;;5034380;28;20250;-75
2021/03/02 05:41:46;;;;;;;25.13;13.60;;;0.30;99.90;;;;;;5033817;28;20598;-75
2021/03/02 05:44:12;;;;;;;21.27;12.57;;;0.20;99.90;;;;;;5050564;28;20283;-75
2021/03/02 05:46:38;;;;;;;23.23;12.67;;;0.30;99.90;;;;;;5034292;28;20177;-75
2021/03/02 05:49:05;;;;;;;25.43;13.40;;;0.20;99.90;;;;;;5029766;28;20259;-75
2021/03/02 05:51:32;;;;;;;22.87;13.33;;;0.20;99.90;;;;;;5014569;28;20213;-75
2021/03/02 05:53:58;;;;;;;26.50;13.83;;;0.30;99.90;;;;;;5030236;28;20202;-75
2021/03/02 05:56:25;;;;;;;24.33;13.37;;;0.20;99.90;;;;;;5032148;28;20230;-75
2021/03/02 05:58:53;;;;;;;25.77;13.53;;;0.20;99.90;;;;;;5017363;28;20268;-75
2021/03/02 06:01:19;;;;;;;25.73;13.57;;;0.20;99.90;;;;;;5033692;28;20222;-75
2021/03/02 06:03:45;;;;;;;24.20;13.77;;;0.20;99.90;;;;;;5033188;28;20698;-76
2021/03/02 06:06:10;;;;;;;21.10;12.50;;;0.10;99.90;;;;;;5033195;28;20181;-76
2021/03/02 06:08:36;;;;;;;21.60;12.73;;;0.10;99.90;;;;;;5034026;28;20176;-77
2021/03/02 06:11:29;;;;;;;22.90;13.00;;;0.20;99.90;;;;;;5033139;28;20270;-77
2021/03/02 06:14:16;;;;;;;24.70;13.40;;;0.30;99.90;;;;;;5050505;28;20220;-76
2021/03/02 06:16:48;;;;;;;22.47;12.53;;;0.20;99.90;;;;;;5029192;28;20673;-77
2021/03/02 06:19:14;;;;;;;21.80;12.70;;;0.20;99.90;;;;;;5033985;28;20275;-76
2021/03/02 06:21:41;;;;;;;28.13;14.03;;;0.20;99.90;;;;;;5033728;28;20264;-75
2021/03/02 06:24:07;;;;;;;23.63;14.10;;;0.20;99.90;;;;;;5042313;28;20204;-76
2021/03/02 06:26:32;;;;;;;26.07;14.43;;;0.20;99.90;;;;;;5028433;28;20179;-75
2021/03/02 06:29:02;;;;;;;27.47;14.70;;;0.20;99.90;;;;;;5020438;28;20188;-75
2021/03/02 06:31:44;;;;;;;30.40;14.87;;;0.30;99.90;;;;;;5054523;28;20540;-76
2021/03/02 06:34:10;;;;;;;26.20;14.37;;;0.30;99.90;;;;;;5021500;28;20230;-75
2021/03/02 06:36:37;;;;;;;26.83;14.63;;;0.30;99.90;;;;;;5053804;28;20183;-76
2021/03/02 06:39:39;;;;;;;26.47;14.40;;;0.30;99.90;;;;;;5029929;28;20226;-75
2021/03/02 06:42:21;;;;;;;28.87;14.73;;;0.30;99.90;;;;;;5037134;28;20180;-76
2021/03/02 06:44:51;;;;;;;25.77;13.97;;;0.40;99.90;;;;;;5040226;28;20245;-75
2021/03/02 06:47:30;;;;;;;25.50;14.03;;;0.30;99.90;;;;;;5007869;28;20197;-75
2021/03/02 06:49:56;;;;;;;31.50;16.57;;;0.40;99.90;;;;;;5017478;28;20211;-75
2021/03/02 06:52:22;;;;;;;27.70;15.30;;;0.40;99.90;;;;;;5005289;28;20185;-76
2021/03/02 06:54:48;;;;;;;31.10;15.30;;;0.50;99.90;;;;;;5016990;28;20573;-76
2021/03/02 06:57:24;;;;;;;26.77;15.07;;;0.50;99.90;;;;;;5033401;28;20545;-75
2021/03/02 06:59:57;;;;;;;28.87;15.43;;;0.60;99.90;;;;;;5033887;28;20181;-75
2021/03/02 07:02:38;;;;;;;30.57;16.00;;;0.80;99.90;;;;;;5034188;28;20193;-75
2021/03/02 07:05:10;;;;;;;30.83;16.10;;;0.90;99.90;;;;;;5034336;28;20184;-76
2021/03/02 07:07:36;;;;;;;38.00;17.40;;;1.10;99.90;;;;;;5047148;28;20238;-76
2021/03/02 07:10:03;;;;;;;33.10;17.30;;;1.30;99.90;;;;;;5020647;28;20174;-76
2021/03/02 07:12:33;;;;;;;30.17;15.53;;;1.40;99.90;;;;;;5014527;28;20690;-77
2021/03/02 07:15:01;;;;;;;27.87;15.77;;;1.60;99.90;;;;;;5033454;28;20203;-76
2021/03/02 07:17:27;;;;;;;26.47;15.60;;;1.80;99.90;;;;;;5036207;28;20177;-76
2021/03/02 07:19:52;;;;;;;28.63;14.97;;;2.00;99.90;;;;;;5015161;28;20543;-76
2021/03/02 07:22:19;;;;;;;29.73;16.67;;;2.20;99.90;;;;;;5015833;28;20243;-76
2021/03/02 07:24:45;;;;;;;25.93;15.40;;;2.40;99.90;;;;;;5032871;28;20213;-76
2021/03/02 07:27:11;;;;;;;27.57;15.17;;;2.60;99.90;;;;;;5033177;28;20179;-77
2021/03/02 07:29:37;;;;;;;26.70;15.30;;;2.80;99.90;;;;;;5019479;28;20547;-77
2021/03/02 07:32:03;;;;;;;24.37;14.70;;;3.00;99.90;;;;;;5018962;28;20209;-77
2021/03/02 07:34:29;;;;;;;26.53;14.00;;;3.30;99.90;;;;;;5036035;28;20293;-77
2021/03/02 07:36:54;;;;;;;24.43;14.10;;;3.40;99.90;;;;;;5019507;28;20207;-77
2021/03/02 07:39:27;;;;;;;24.33;14.23;;;3.70;99.90;;;;;;5036153;28;20185;-79
2021/03/02 07:41:53;;;;;;;24.10;14.60;;;3.80;99.90;;;;;;5033321;28;20242;-78
2021/03/02 07:44:19;;;;;;;27.70;14.33;;;4.00;99.90;;;;;;5031131;28;20296;-78
2021/03/02 07:46:49;;;;;;;22.07;13.43;;;4.10;99.90;;;;;;5029441;28;20192;-78
2021/03/02 07:49:23;;;;;;;23.40;13.73;;;4.30;99.90;;;;;;5025407;28;20174;-77
2021/03/02 07:52:01;;;;;;;25.07;14.07;;;4.40;99.90;;;;;;5046421;28;20191;-78
2021/03/02 07:54:30;;;;;;;20.70;12.27;;;4.70;99.90;;;;;;5053629;28;20266;-77
2021/03/02 07:57:14;;;;;;;20.43;12.57;;;4.80;99.90;;;;;;5036071;28;20175;-79
2021/03/02 08:00:00;;;;;;;18.77;11.93;;;5.10;99.90;;;;;;5054120;28;20180;-77
2021/03/02 08:02:26;;;;;;;23.03;12.20;;;5.20;99.90;;;;;;5045565;28;20217;-78
2021/03/02 08:04:52;;;;;;;17.47;11.40;;;5.40;99.90;;;;;;5034950;28;20768;-77
2021/03/02 08:07:19;;;;;;;19.23;12.07;;;5.60;99.90;;;;;;5035370;28;20181;-77
2021/03/02 08:09:45;;;;;;;17.87;11.57;;;5.70;99.90;;;;;;5036002;28;20212;-77
2021/03/02 08:12:28;;;;;;;16.53;11.47;;;5.90;99.90;;;;;;5034617;28;20179;-80
2021/03/02 08:14:54;;;;;;;20.77;11.90;;;6.00;99.90;;;;;;5033676;28;20216;-78
2021/03/02 08:17:20;;;;;;;18.03;11.33;;;6.20;99.90;;;;;;5050709;28;20173;-77
2021/03/02 08:20:10;;;;;;;17.77;11.80;;;6.30;99.90;;;;;;5034152;28;20174;-81
2021/03/02 08:22:41;;;;;;;17.97;10.67;;;6.40;99.90;;;;;;5048271;28;20594;-78
2021/03/02 08:25:10;;;;;;;18.70;11.37;;;6.60;99.90;;;;;;5053774;28;20175;-77
2021/03/02 08:27:36;;;;;;;18.77;11.63;;;6.90;99.90;;;;;;5035162;28;20178;-77
2021/03/02 08:30:09;;;;;;;16.27;10.33;;;7.10;99.90;;;;;;5052238;28;20647;-77
2021/03/02 08:32:38;;;;;;;14.47;10.17;;;7.30;99.90;;;;;;5013227;28;20181;-77
2021/03/02 08:35:08;;;;;;;14.30;9.93;;;7.50;99.90;;;;;;5033980;28;20190;-77
2021/03/02 08:37:50;;;;;;;17.37;10.00;;;7.50;99.90;;;;;;5034635;28;20201;-78
2021/03/02 08:40:30;;;;;;;14.87;10.13;;;7.60;99.90;;;;;;5050281;28;20178;-76
2021/03/02 08:43:09;;;;;;;17.47;10.37;;;7.80;99.90;;;;;;5053870;28;20260;-76
2021/03/02 08:45:39;;;;;;;18.00;10.67;;;7.90;99.90;;;;;;5048008;28;20786;-78
2021/03/02 08:48:13;;;;;;;14.70;9.27;;;8.30;99.90;;;;;;5034228;28;20212;-77
2021/03/02 08:50:38;;;;;;;16.07;10.03;;;8.70;99.90;;;;;;5015932;28;20668;-77
2021/03/02 08:53:04;;;;;;;14.87;10.07;;;9.00;99.90;;;;;;5033802;28;20194;-77
2021/03/02 08:55:36;;;;;;;15.03;9.93;;;9.60;99.90;;;;;;5050034;28;20232;-76
2021/03/02 08:58:02;;;;;;;14.80;9.60;;;10.20;99.90;;;;;;5033813;28;20239;-76
2021/03/02 09:00:28;;;;;;;15.00;9.67;;;10.50;99.90;;;;;;5013818;28;20183;-77
2021/03/02 09:02:54;;;;;;;15.03;10.17;;;10.90;99.90;;;;;;5031859;28;20211;-76
2021/03/02 09:05:19;;;;;;;14.87;9.63;;;11.60;99.90;;;;;;5033634;28;20177;-76
2021/03/02 09:08:04;;;;;;;14.13;9.63;;;12.70;99.90;;;;;;5017222;28;20570;-76
2021/03/02 09:10:30;;;;;;;14.87;9.37;;;13.90;99.90;;;;;;5039174;28;20553;-76
2021/03/02 09:12:55;;;;;;;15.40;9.07;;;14.40;99.90;;;;;;5032173;28;20214;-77
2021/03/02 09:15:34;;;;;;;13.43;9.37;;;14.60;99.90;;;;;;5033939;28;20628;-77
2021/03/02 09:18:18;;;;;;;13.17;9.17;;;15.00;99.90;;;;;;5000512;28;20188;-76
2021/03/02 09:21:01;;;;;;;12.53;8.10;;;15.60;99.90;;;;;;5045959;28;20249;-76
2021/03/02 09:23:27;;;;;;;13.00;8.73;;;15.80;99.90;;;;;;5030362;28;20311;-77
2021/03/02 09:25:52;;;;;;;14.93;9.43;;;16.20;99.90;;;;;;5014113;28;20260;-77
2021/03/02 09:28:18;;;;;;;12.43;8.67;;;15.60;99.90;;;;;;5018921;28;20183;-76
2021/03/02 09:30:44;;;;;;;14.63;8.43;;;15.20;99.90;;;;;;5006363;28;20210;-76
2021/03/02 09:33:11;;;;;;;14.63;8.90;;;15.90;99.90;;;;;;5029921;28;20739;-77
2021/03/02 09:35:37;;;;;;;11.73;8.40;;;16.60;99.90;;;;;;5035110;28;20214;-77
2021/03/02 09:38:03;;;;;;;15.20;9.40;;;16.40;99.90;;;;;;5034827;28;20176;-77
2021/03/02 09:40:42;;;;;;;13.23;9.30;;;17.00;99.90;;;;;;5035000;28;20714;-77
2021/03/02 09:43:08;;;;;;;12.90;8.53;;;17.20;99.90;;;;;;5032480;28;20215;-77
2021/03/02 09:45:33;;;;;;;11.63;8.20;;;17.40;99.90;;;;;;5013006;28;20670;-76
2021/03/02 09:48:01;;;;;;;13.13;8.63;;;17.70;99.90;;;;;;5030236;28;20264;-77
2021/03/02 09:50:38;;;;;;;11.37;7.80;;;17.60;99.90;;;;;;5050214;28;20311;-80
2021/03/02 09:53:14;;;;;;;10.13;7.37;;;17.70;99.90;;;;;;5031420;28;20202;-80
2021/03/02 09:55:42;;;;;;;11.47;7.77;;;17.70;99.90;;;;;;5013777;28;20651;-79
2021/03/02 09:58:26;;;;;;;11.43;7.63;;;17.40;99.90;;;;;;5038712;28;20183;-79
2021/03/02 10:01:04;;;;;;;10.83;7.33;;;16.90;99.90;;;;;;5021852;28;20182;-80
2021/03/02 10:03:36;;;;;;;10.83;7.20;;;16.40;99.90;;;;;;5024691;28;20245;-79
2021/03/02 10:06:03;;;;;;;11.17;7.97;;;15.40;99.90;;;;;;5038888;28;20257;-78
2021/03/02 10:08:36;;;;;;;10.83;7.37;;;15.70;99.90;;;;;;5022322;28;20185;-77
2021/03/02 10:11:11;;;;;;;11.23;8.67;;;16.30;99.90;;;;;;5022117;28;20559;-77
2021/03/02 10:13:39;;;;;;;10.10;7.87;;;16.60;99.90;;;;;;5053818;28;20293;-78
2021/03/02 10:16:15;;;;;;;10.87;8.17;;;16.60;99.90;;;;;;5039169;28;20182;-78
2021/03/02 10:18:48;;;;;;;13.40;8.20;;;15.80;99.90;;;;;;5021225;28;20184;-77
2021/03/02 10:21:13;;;;;;;11.67;8.27;;;14.60;99.90;;;;;;5034171;28;20189;-77
2021/03/02 10:23:45;;;;;;;9.80;7.90;;;14.00;99.90;;;;;;5034008;28;20214;-77
2021/03/02 10:26:11;;;;;;;11.63;7.87;;;13.60;99.90;;;;;;5018166;28;20179;-77
2021/03/02 10:28:37;;;;;;;12.23;8.10;;;13.40;99.90;;;;;;5033864;28;20179;-77
2021/03/02 10:31:03;;;;;;;9.93;7.37;;;13.20;99.90;;;;;;5031255;28;20178;-77
2021/03/02 10:33:28;;;;;;;11.53;8.50;;;13.50;99.90;;;;;;5033749;28;20257;-77
2021/03/02 10:35:54;;;;;;;10.73;8.07;;;14.00;99.90;;;;;;5033757;28;20674;-77
2021/03/02 10:38:19;;;;;;;13.00;8.20;;;14.40;99.90;;;;;;5036403;28;20190;-77
2021/03/02 10:40:45;;;;;;;11.10;8.23;;;14.70;99.90;;;;;;5037354;28;20205;-77
2021/03/02 10:43:11;;;;;;;9.80;7.10;;;14.70;99.90;;;;;;5036677;28;20202;-77
2021/03/02 10:45:36;;;;;;;11.53;7.50;;;14.90;99.90;;;;;;5032584;28;20182;-77
2021/03/02 10:48:03;;;;;;;12.23;7.90;;;15.00;99.90;;;;;;5026659;28;20174;-77
2021/03/02 10:50:29;;;;;;;10.50;7.23;;;15.10;99.90;;;;;;5037763;28;20178;-77
2021/03/02 10:52:56;;;;;;;10.80;7.47;;;15.30;99.90;;;;;;5037622;28;20178;-77
2021/03/02 10:55:22;;;;;;;11.17;6.93;;;15.30;99.90;;;;;;5046101;28;20174;-77
2021/03/02 10:57:47;;;;;;;11.27;7.40;;;15.60;99.90;;;;;;5037498;28;20178;-77
2021/03/02 11:00:14;;;;;;;9.97;7.63;;;15.60;99.90;;;;;;5037866;28;20658;-78
2021/03/02 11:02:40;;;;;;;10.33;7.83;;;15.60;99.90;;;;;;5033602;28;20182;-77
2021/03/02 11:05:07;;;;;;;12.17;7.97;;;15.70;99.90;;;;;;5017543;28;20175;-77
2021/03/02 11:07:32;;;;;;;11.53;8.27;;;15.80;99.90;;;;;;5021835;28;20269;-77
2021/03/02 11:09:58;;;;;;;12.03;7.93;;;15.90;99.90;;;;;;5001933;28;20195;-78
2021/03/02 11:12:24;;;;;;;11.13;8.03;;;16.10;99.90;;;;;;5001866;28;20636;-77
2021/03/02 11:14:49;;;;;;;10.17;7.23;;;16.30;99.90;;;;;;5013188;28;20265;-77
2021/03/02 11:17:15;;;;;;;9.07;6.33;;;16.40;99.90;;;;;;5035038;28;20223;-77
2021/03/02 11:19:40;;;;;;;7.63;5.53;;;16.40;99.90;;;;;;5019212;28;20181;-79
2021/03/02 11:22:06;;;;;;;6.93;5.07;;;16.40;99.90;;;;;;5022809;28;20258;-80
2021/03/02 11:24:33;;;;;;;7.83;5.60;;;16.40;99.90;;;;;;5019848;28;20230;-79
2021/03/02 11:26:59;;;;;;;8.17;5.50;;;16.30;99.90;;;;;;5004842;28;20565;-81
2021/03/02 11:29:24;;;;;;;9.50;5.97;;;16.20;99.90;;;;;;5037841;28;20178;-78
2021/03/02 11:31:51;;;;;;;9.03;5.53;;;16.30;99.90;;;;;;5029004;28;20187;-79
2021/03/02 11:34:16;;;;;;;7.87;5.97;;;16.60;99.90;;;;;;5002807;28;20199;-79
2021/03/02 11:36:42;;;;;;;7.97;5.53;;;16.70;99.90;;;;;;5022457;28;20197;-78
2021/03/02 11:39:08;;;;;;;7.87;5.63;;;;;;;;;;5003603;28;20179;-78
2021/03/02 11:41:34;;;;;;;8.93;5.57;;;;;;;;;;5025616;28;20183;-78
2021/03/02 11:44:00;;;;;;;9.50;5.30;;;;;;;;;;5034693;28;20220;-78
2021/03/02 11:46:26;;;;;;;8.30;6.20;;;;;;;;;;5035576;28;20175;-78
2021/03/02 11:48:52;;;;;;;6.63;5.17;;;;;;;;;;5050361;28;20204;-78
2021/03/02 11:51:18;;;;;;;7.00;5.07;;;;;;;;;;5054646;28;20182;-78
2021/03/02 11:53:44;;;;;;;7.37;5.00;;;;;;;;;;5053542;28;20219;-78
2021/03/02 11:56:10;;;;;;;7.87;4.83;;;;;;;;;;5053039;28;20285;-78
2021/03/02 11:58:36;;;;;;;6.93;5.10;;;;;;;;;;5033129;28;20210;-77
2021/03/02 12:01:04;;;;;;;7.47;4.50;;;;;;;;;;5050087;28;20190;-77
2021/03/02 12:03:30;;;;;;;7.20;4.57;;;;;;;;;;5038277;28;20206;-77
2021/03/02 12:05:56;;;;;;;6.10;4.97;;;;;;;;;;5038585;28;20269;-77
2021/03/02 12:08:22;;;;;;;5.07;3.77;;;;;;;;;;5051619;28;20183;-77
2021/03/02 12:10:48;;;;;;;8.20;4.67;;;;;;;;;;5051776;28;20710;-77
2021/03/02 12:13:14;;;;;;;6.07;4.47;;;;;;;;;;5051699;28;20584;-77
2021/03/02 12:15:41;;;;;;;7.23;4.63;;;;;;;;;;5030242;28;20183;-77
2021/03/02 12:18:07;;;;;;;6.40;4.60;;;;;;;;;;5031728;28;20261;-77
2021/03/02 12:20:33;;;;;;;7.33;5.03;;;;;;;;;;5015469;28;20213;-76
2021/03/02 12:22:59;;;;;;;7.17;5.10;;;;;;;;;;5046329;28;20691;-76
2021/03/02 12:25:25;;;;;;;9.07;5.60;;;;;;;;;;5021785;28;20758;-76
2021/03/02 12:27:51;;;;;;;6.47;5.17;;;;;;;;;;5046369;28;20209;-77
2021/03/02 12:30:17;;;;;;;6.30;5.13;;;;;;;;;;5050888;28;20253;-76
2021/03/02 12:32:43;;;;;;;7.43;5.10;;;;;;;;;;5034603;28;20182;-77
2021/03/02 12:35:09;;;;;;;6.30;4.83;;;;;;;;;;5050861;28;20175;-77
2021/03/02 12:37:35;;;;;;;7.33;5.30;;;;;;;;;;5034893;28;20182;-77
2021/03/02 12:40:01;;;;;;;6.77;4.90;;;;;;;;;;5037428;28;20643;-77
2021/03/02 12:42:27;;;;;;;7.17;4.97;;;;;;;;;;5049012;28;20277;-77
2021/03/02 12:44:53;;;;;;;7.00;5.33;;;;;;;;;;5034923;28;20216;-77
2021/03/02 12:47:19;;;;;;;5.80;4.47;;;;;;;;;;5051106;28;20182;-77
2021/03/02 12:49:45;;;;;;;7.27;5.30;;;;;;;;;;5031016;28;20178;-77
2021/03/02 12:52:11;;;;;;;6.17;4.93;;;;;;;;;;5034608;28;20595;-76